Time;durP1;ratioP1;P1;durP2;ratioP2;P2;SDS_P1;SDS_P2;PMS_P1;PMS_P2;Temp;Humidity;BMP_temperature;BMP_pressure;BME280_temperature;BME280_humidity;BME280_pressure;Samples;Min_cycle;Max_cycle;Signal;HPM_P1;HPM_P2
2023/05/28 00:02:16;;;;;;;22.60;7.85;;;;;;;;;;5055493;28;20600;-78
2023/05/28 00:04:42;;;;;;;23.75;7.85;;;;;;;;;;5055159;28;20102;-77
2023/05/28 00:07:10;;;;;;;20.40;7.93;;;;;;;;;;5062690;28;20040;-78
2023/05/28 00:09:36;;;;;;;25.77;8.38;;;;;;;;;;5050469;28;20148;-78
2023/05/28 00:12:02;;;;;;;25.50;8.80;;;;;;;;;;5070231;28;20047;-79
2023/05/28 00:14:28;;;;;;;20.20;8.10;;;;;;;;;;5057216;28;20048;-78
2023/05/28 00:16:55;;;;;;;22.00;8.00;;;;;;;;;;5068231;28;20646;-79
2023/05/28 00:19:21;;;;;;;24.92;8.75;;;;;;;;;;5070496;28;20040;-78
2023/05/28 00:21:48;;;;;;;22.08;7.65;;;;;;;;;;5052401;28;20040;-78
2023/05/28 00:24:14;;;;;;;23.75;8.35;;;;;;;;;;5062650;28;20131;-79
2023/05/28 00:26:40;;;;;;;29.10;8.88;;;;;;;;;;5062272;28;20041;-78
2023/05/28 00:29:06;;;;;;;26.80;9.00;;;;;;;;;;5062721;28;20141;-78
2023/05/28 00:31:32;;;;;;;20.08;8.00;;;;;;;;;;5041092;28;20075;-79
2023/05/28 00:33:58;;;;;;;24.65;8.68;;;;;;;;;;5040165;28;20135;-77
2023/05/28 00:36:24;;;;;;;23.15;8.65;;;;;;;;;;5066117;28;20044;-78
2023/05/28 00:38:50;;;;;;;27.25;8.75;;;;;;;;;;5061877;28;20032;-78
2023/05/28 00:41:22;;;;;;;27.10;9.48;;;;;;;;;;5064368;28;20040;-78
2023/05/28 00:43:48;;;;;;;23.67;9.13;;;;;;;;;;5062187;28;20116;-79
2023/05/28 00:46:17;;;;;;;24.70;9.10;;;;;;;;;;5063535;28;20132;-79
2023/05/28 00:48:44;;;;;;;25.15;8.77;;;;;;;;;;5045954;28;20048;-79
2023/05/28 00:51:11;;;;;;;26.25;9.23;;;;;;;;;;5058923;28;20036;-79
2023/05/28 00:53:37;;;;;;;26.50;9.25;;;;;;;;;;5060292;28;20048;-78
2023/05/28 00:56:03;;;;;;;32.67;9.52;;;;;;;;;;5048922;28;20127;-78
2023/05/28 00:58:30;;;;;;;20.83;9.27;;;;;;;;;;5059699;28;20040;-78
2023/05/28 01:00:56;;;;;;;30.30;9.38;;;;;;;;;;5070921;28;20245;-78
2023/05/28 01:03:22;;;;;;;21.67;9.23;;;;;;;;;;5056999;28;20535;-80
2023/05/28 01:05:48;;;;;;;31.17;8.90;;;;;;;;;;5062575;28;20443;-78
2023/05/28 01:08:14;;;;;;;25.25;9.32;;;;;;;;;;5051296;28;20055;-78
2023/05/28 01:10:40;;;;;;;26.15;9.48;;;;;;;;;;5072398;28;20138;-78
2023/05/28 01:13:07;;;;;;;22.95;8.82;;;;;;;;;;5074372;28;20101;-78
2023/05/28 01:15:34;;;;;;;26.20;8.60;;;;;;;;;;5049580;28;20051;-77
2023/05/28 01:18:00;;;;;;;29.55;9.23;;;;;;;;;;5055163;28;20614;-78
2023/05/28 01:20:31;;;;;;;27.50;9.23;;;;;;;;;;5068777;28;20048;-78
2023/05/28 01:23:05;;;;;;;25.65;10.27;;;;;;;;;;5066040;28;20078;-78
2023/05/28 01:25:32;;;;;;;25.20;9.05;;;;;;;;;;5054543;28;20040;-78
2023/05/28 01:28:01;;;;;;;20.90;8.75;;;;;;;;;;5059962;28;20040;-79
2023/05/28 01:30:27;;;;;;;25.83;9.82;;;;;;;;;;5056209;28;20036;-78
2023/05/28 01:32:53;;;;;;;24.38;8.63;;;;;;;;;;5055050;28;20098;-79
2023/05/28 01:35:19;;;;;;;26.05;9.13;;;;;;;;;;5075123;28;20036;-78
2023/05/28 01:37:50;;;;;;;20.35;8.82;;;;;;;;;;5090087;28;20036;-78
2023/05/28 01:40:17;;;;;;;20.95;8.60;;;;;;;;;;5070379;28;20048;-78
2023/05/28 01:42:44;;;;;;;24.75;8.93;;;;;;;;;;5048724;28;20208;-79
2023/05/28 01:45:11;;;;;;;22.13;9.02;;;;;;;;;;5049316;28;20055;-78
2023/05/28 01:47:37;;;;;;;24.80;8.65;;;;;;;;;;5057400;28;20389;-79
2023/05/28 01:50:04;;;;;;;24.95;8.57;;;;;;;;;;5041327;28;20043;-79
2023/05/28 01:52:30;;;;;;;26.10;9.32;;;;;;;;;;5059093;28;20051;-78
2023/05/28 01:54:56;;;;;;;23.15;8.50;;;;;;;;;;5044807;28;20456;-78
2023/05/28 01:57:22;;;;;;;27.35;9.57;;;;;;;;;;5042905;28;20056;-78
2023/05/28 01:59:48;;;;;;;23.55;9.50;;;;;;;;;;5061941;28;20052;-78
2023/05/28 02:02:14;;;;;;;25.80;9.85;;;;;;;;;;5043448;28;20058;-78
2023/05/28 02:04:40;;;;;;;24.42;9.43;;;;;;;;;;5060464;28;20113;-78
2023/05/28 02:07:06;;;;;;;29.27;10.50;;;;;;;;;;5043454;28;20151;-80
2023/05/28 02:09:32;;;;;;;29.77;10.82;;;;;;;;;;5059602;28;20056;-77
2023/05/28 02:12:02;;;;;;;29.20;10.02;;;;;;;;;;5066463;28;20102;-79
2023/05/28 02:14:28;;;;;;;29.90;10.20;;;;;;;;;;5063111;28;20148;-79
2023/05/28 02:16:54;;;;;;;28.52;10.15;;;;;;;;;;5084685;28;20050;-78
2023/05/28 02:19:21;;;;;;;24.73;10.18;;;;;;;;;;5060892;28;20399;-80
2023/05/28 02:21:47;;;;;;;24.30;9.88;;;;;;;;;;5067340;28;20079;-79
2023/05/28 02:24:13;;;;;;;23.73;10.07;;;;;;;;;;5051751;28;20052;-79
2023/05/28 02:26:39;;;;;;;25.40;10.05;;;;;;;;;;5071038;28;20088;-77
2023/05/28 02:29:06;;;;;;;25.13;9.85;;;;;;;;;;5057360;28;20116;-78
2023/05/28 02:31:32;;;;;;;31.02;10.40;;;;;;;;;;5071759;28;20444;-79
2023/05/28 02:33:58;;;;;;;30.45;9.93;;;;;;;;;;5054572;28;20036;-79
2023/05/28 02:36:24;;;;;;;30.88;10.55;;;;;;;;;;5048964;28;20105;-79
2023/05/28 02:38:50;;;;;;;23.83;9.25;;;;;;;;;;5083245;28;20116;-79
2023/05/28 02:41:16;;;;;;;23.58;9.32;;;;;;;;;;5057979;28;20286;-78
2023/05/28 02:43:44;;;;;;;27.02;9.85;;;;;;;;;;5066975;28;20114;-79
2023/05/28 02:46:10;;;;;;;25.20;9.32;;;;;;;;;;5072155;28;20044;-78
2023/05/28 02:48:36;;;;;;;25.92;9.32;;;;;;;;;;5062320;28;20411;-78
2023/05/28 02:51:02;;;;;;;25.63;9.07;;;;;;;;;;5071732;28;20498;-79
2023/05/28 02:53:31;;;;;;;25.80;9.43;;;;;;;;;;5072526;28;20408;-79
2023/05/28 02:55:57;;;;;;;26.50;8.75;;;;;;;;;;5074563;28;20044;-78
2023/05/28 02:58:23;;;;;;;22.98;9.30;;;;;;;;;;5078406;28;20043;-79
2023/05/28 03:00:50;;;;;;;27.92;9.88;;;;;;;;;;5078737;28;20061;-79
2023/05/28 03:03:16;;;;;;;22.15;8.65;;;;;;;;;;5072256;28;20072;-79
2023/05/28 03:05:42;;;;;;;27.42;9.20;;;;;;;;;;5079423;28;20147;-78
2023/05/28 03:08:08;;;;;;;24.27;8.77;;;;;;;;;;5070494;28;20189;-78
2023/05/28 03:10:34;;;;;;;24.83;9.35;;;;;;;;;;5074723;28;20037;-78
2023/05/28 03:13:01;;;;;;;55.55;10.32;;;;;;;;;;5090764;28;20067;-79
2023/05/28 03:15:27;;;;;;;29.67;9.88;;;;;;;;;;5070182;28;20131;-79
2023/05/28 03:17:53;;;;;;;25.08;9.60;;;;;;;;;;5050979;28;20056;-79
2023/05/28 03:20:19;;;;;;;22.50;9.00;;;;;;;;;;5066914;28;20040;-79
2023/05/28 03:22:49;;;;;;;23.63;9.90;;;;;;;;;;5070241;28;20101;-78
2023/05/28 03:25:15;;;;;;;25.08;9.80;;;;;;;;;;5058417;28;20407;-79
2023/05/28 03:27:41;;;;;;;28.67;9.82;;;;;;;;;;5079068;28;20140;-79
2023/05/28 03:30:09;;;;;;;22.88;8.95;;;;;;;;;;5052196;28;20037;-79
2023/05/28 03:32:35;;;;;;;27.73;9.95;;;;;;;;;;5064351;28;20036;-79
2023/05/28 03:35:01;;;;;;;27.52;9.77;;;;;;;;;;5055666;28;20043;-78
2023/05/28 03:37:27;;;;;;;28.52;9.40;;;;;;;;;;5075718;28;20143;-79
2023/05/28 03:39:54;;;;;;;25.33;9.27;;;;;;;;;;5051715;28;20037;-78
2023/05/28 03:42:20;;;;;;;28.30;9.63;;;;;;;;;;5078461;28;20036;-78
2023/05/28 03:44:46;;;;;;;26.38;9.57;;;;;;;;;;5078701;28;20414;-78
2023/05/28 03:47:13;;;;;;;26.70;9.63;;;;;;;;;;5046444;28;20040;-78
2023/05/28 03:49:39;;;;;;;26.38;9.88;;;;;;;;;;5069255;28;20036;-79
2023/05/28 03:52:05;;;;;;;25.27;9.20;;;;;;;;;;5048212;28;20127;-79
2023/05/28 03:54:32;;;;;;;25.58;9.23;;;;;;;;;;5063931;28;20064;-78
2023/05/28 03:56:58;;;;;;;23.63;9.50;;;;;;;;;;5065290;28;20048;-79
2023/05/28 03:59:24;;;;;;;26.38;9.52;;;;;;;;;;5062967;28;20052;-78
2023/05/28 04:01:50;;;;;;;21.83;8.52;;;;;;;;;;5064318;28;20135;-79
2023/05/28 04:04:16;;;;;;;29.38;9.68;;;;;;;;;;5061043;28;20159;-79
2023/05/28 04:06:42;;;;;;;24.00;8.80;;;;;;;;;;5062810;28;20056;-79
2023/05/28 04:09:08;;;;;;;27.50;9.98;;;;;;;;;;5062914;28;20045;-79
2023/05/28 04:11:37;;;;;;;23.60;8.73;;;;;;;;;;5044752;28;20147;-79
2023/05/28 04:14:03;;;;;;;31.40;9.30;;;;;;;;;;5077070;28;20044;-79
2023/05/28 04:16:29;;;;;;;22.90;8.90;;;;;;;;;;5048714;28;20556;-79
2023/05/28 04:18:56;;;;;;;22.30;8.63;;;;;;;;;;5043861;28;20048;-79
2023/05/28 04:21:22;;;;;;;24.50;9.00;;;;;;;;;;5060512;28;20052;-79
2023/05/28 04:23:48;;;;;;;25.92;9.38;;;;;;;;;;5049916;28;20413;-79
2023/05/28 04:26:14;;;;;;;25.45;8.93;;;;;;;;;;5065118;28;20043;-78
2023/05/28 04:28:40;;;;;;;26.75;8.75;;;;;;;;;;5063703;28;20040;-79
2023/05/28 04:31:07;;;;;;;29.02;9.65;;;;;;;;;;5048874;28;20048;-78
2023/05/28 04:33:33;;;;;;;23.38;8.90;;;;;;;;;;5068295;28;20449;-78
2023/05/28 04:35:59;;;;;;;22.05;8.65;;;;;;;;;;5056631;28;20044;-79
2023/05/28 04:38:28;;;;;;;24.08;8.75;;;;;;;;;;5070572;28;20036;-78
2023/05/28 04:40:55;;;;;;;26.27;9.40;;;;;;;;;;5069981;28;20047;-79
2023/05/28 04:43:24;;;;;;;21.83;8.50;;;;;;;;;;5050388;28;20024;-79
2023/05/28 04:45:53;;;;;;;24.55;9.00;;;;;;;;;;5068544;28;20047;-78
2023/05/28 04:48:19;;;;;;;26.40;8.98;;;;;;;;;;5055514;28;20040;-78
2023/05/28 04:50:45;;;;;;;21.67;8.75;;;;;;;;;;5062394;28;20040;-80
2023/05/28 04:53:11;;;;;;;25.38;9.18;;;;;;;;;;5061660;28;20033;-79
2023/05/28 04:55:37;;;;;;;23.80;8.93;;;;;;;;;;5054511;28;20037;-78
2023/05/28 04:58:03;;;;;;;23.60;9.25;;;;;;;;;;5070647;28;20037;-79
2023/05/28 05:00:31;;;;;;;25.80;8.80;;;;;;;;;;5049533;28;20033;-79
2023/05/28 05:02:57;;;;;;;20.80;8.65;;;;;;;;;;5070302;28;20124;-79
2023/05/28 05:05:23;;;;;;;22.33;8.50;;;;;;;;;;5053369;28;20221;-79
2023/05/28 05:07:51;;;;;;;26.05;8.73;;;;;;;;;;5059793;28;20132;-78
2023/05/28 05:10:18;;;;;;;23.77;9.10;;;;;;;;;;5049379;28;20059;-79
2023/05/28 05:12:45;;;;;;;26.80;8.70;;;;;;;;;;5065158;28;20050;-79
2023/05/28 05:15:11;;;;;;;23.15;8.13;;;;;;;;;;5054393;28;20127;-78
2023/05/28 05:17:37;;;;;;;25.75;8.25;;;;;;;;;;5067837;28;20487;-78
2023/05/28 05:20:08;;;;;;;21.63;8.95;;;;;;;;;;5072104;28;20036;-79
2023/05/28 05:22:34;;;;;;;22.55;9.05;;;;;;;;;;5070528;28;20172;-77
2023/05/28 05:25:00;;;;;;;21.00;7.38;;;;;;;;;;5075191;28;20043;-78
2023/05/28 05:27:28;;;;;;;18.08;7.63;;;;;;;;;;5070964;28;20506;-78
2023/05/28 05:29:54;;;;;;;22.17;8.35;;;;;;;;;;5051686;28;20145;-79
2023/05/28 05:32:20;;;;;;;20.83;8.65;;;;;;;;;;5067001;28;20484;-79
2023/05/28 05:34:46;;;;;;;22.33;8.10;;;;;;;;;;5058940;28;20032;-78
2023/05/28 05:37:12;;;;;;;25.05;8.15;;;;;;;;;;5073245;28;20258;-78
2023/05/28 05:39:38;;;;;;;21.08;8.18;;;;;;;;;;5068362;28;20039;-78
2023/05/28 05:42:05;;;;;;;20.55;7.55;;;;;;;;;;5068827;28;20052;-78
2023/05/28 05:44:31;;;;;;;25.42;8.07;;;;;;;;;;5074238;28;20046;-79
2023/05/28 05:46:57;;;;;;;19.65;8.15;;;;;;;;;;5059269;28;20438;-79
2023/05/28 05:49:23;;;;;;;19.48;7.50;;;;;;;;;;5049762;28;20452;-79
2023/05/28 05:51:49;;;;;;;21.80;7.53;;;;;;;;;;5084814;28;20082;-79
2023/05/28 05:54:15;;;;;;;20.42;7.55;;;;;;;;;;5071531;28;20314;-78
2023/05/28 05:56:41;;;;;;;21.73;7.57;;;;;;;;;;5043820;28;20051;-79
2023/05/28 05:59:07;;;;;;;20.65;7.57;;;;;;;;;;5079647;28;20468;-78
2023/05/28 06:01:33;;;;;;;21.67;7.80;;;;;;;;;;5047632;28;20052;-78
2023/05/28 06:03:59;;;;;;;24.00;7.85;;;;;;;;;;5071956;28;20109;-79
2023/05/28 06:06:26;;;;;;;23.55;8.30;;;;;;;;;;5069640;28;20109;-79
2023/05/28 06:08:52;;;;;;;21.10;7.35;;;;;;;;;;5063115;28;20045;-79
2023/05/28 06:11:19;;;;;;;21.30;7.03;;;;;;;;;;5050985;28;20084;-78
2023/05/28 06:13:45;;;;;;;18.27;6.78;;;;;;;;;;5053590;28;20047;-78
2023/05/28 06:16:11;;;;;;;23.35;6.93;;;;;;;;;;5051054;28;20048;-79
2023/05/28 06:18:37;;;;;;;18.08;6.90;;;;;;;;;;5054704;28;20043;-79
2023/05/28 06:21:03;;;;;;;20.40;6.30;;;;;;;;;;5070219;28;20766;-79
2023/05/28 06:23:29;;;;;;;19.05;6.22;;;;;;;;;;5066528;28;20052;-79
2023/05/28 06:25:56;;;;;;;18.13;5.63;;;;;;;;;;5055421;28;20086;-78
2023/05/28 06:28:22;;;;;;;19.17;6.05;;;;;;;;;;5074773;28;20044;-78
2023/05/28 06:30:47;;;;;;;21.15;6.07;;;;;;;;;;5048423;28;20399;-79
2023/05/28 06:33:14;;;;;;;13.90;5.90;;;;;;;;;;5049616;28;20036;-78
2023/05/28 06:35:40;;;;;;;18.73;6.60;;;;;;;;;;5040471;28;20052;-79
2023/05/28 06:38:06;;;;;;;21.58;7.03;;;;;;;;;;5077046;28;20040;-79
2023/05/28 06:40:32;;;;;;;17.88;6.57;;;;;;;;;;5066720;28;20091;-78
2023/05/28 06:43:00;;;;;;;16.90;6.28;;;;;;;;;;5079305;28;20050;-80
2023/05/28 06:45:26;;;;;;;;;;;;;;;;;;5051851;28;20794;-80
2023/05/28 06:47:53;;;;;;;17.75;7.40;;;;;;;;;;5076140;28;19920;-79
2023/05/28 06:50:18;;;;;;;12.18;6.18;;;;;;;;;;5054065;28;20056;-79
2023/05/28 06:52:44;;;;;;;18.38;6.10;;;;;;;;;;5062441;28;20080;-78
2023/05/28 06:55:11;;;;;;;16.65;7.05;;;;;;;;;;5055695;28;20048;-78
2023/05/28 06:57:37;;;;;;;13.40;7.00;;;;;;;;;;5062953;28;20040;-79
2023/05/28 07:00:09;;;;;;;13.13;7.07;;;;;;;;;;5050132;28;20043;-78
2023/05/28 07:02:35;;;;;;;12.68;6.80;;;;;;;;;;5080522;28;20407;-79
2023/05/28 07:05:04;;;;;;;17.25;6.65;;;;;;;;;;5056681;28;20053;-78
2023/05/28 07:07:30;;;;;;;;;;;;;;;;;;5080930;28;20535;-79
2023/05/28 07:09:56;;;;;;;12.55;6.03;;;;;;;;;;5068846;28;19924;-79
2023/05/28 07:12:22;;;;;;;10.98;5.78;;;;;;;;;;5076091;28;20826;-79
2023/05/28 07:14:48;;;;;;;12.82;6.53;;;;;;;;;;5067651;28;20175;-80
2023/05/28 07:17:14;;;;;;;12.27;6.25;;;;;;;;;;5080109;28;20600;-78
2023/05/28 07:19:40;;;;;;;11.38;5.82;;;;;;;;;;5057828;28;20035;-78
2023/05/28 07:22:07;;;;;;;12.68;6.43;;;;;;;;;;5069779;28;20071;-79
2023/05/28 07:24:33;;;;;;;15.02;6.25;;;;;;;;;;5076763;28;20055;-79
2023/05/28 07:26:59;;;;;;;12.70;5.63;;;;;;;;;;5056082;28;20044;-77
2023/05/28 07:29:27;;;;;;;12.45;5.80;;;;;;;;;;5056107;28;21064;-78
2023/05/28 07:31:53;;;;;;;10.40;6.07;;;;;;;;;;5068952;28;20056;-78
2023/05/28 07:34:19;;;;;;;9.60;5.45;;;;;;;;;;5069669;28;20071;-78
2023/05/28 07:36:45;;;;;;;11.15;5.88;;;;;;;;;;5066517;28;20534;-78
2023/05/28 07:39:11;;;;;;;10.77;5.53;;;;;;;;;;5052746;28;20045;-78
2023/05/28 07:41:37;;;;;;;10.38;5.05;;;;;;;;;;5065638;28;20044;-78
2023/05/28 07:44:03;;;;;;;16.33;5.65;;;;;;;;;;5053067;28;20083;-78
2023/05/28 07:46:29;;;;;;;12.82;5.45;;;;;;;;;;5055176;28;20043;-79
2023/05/28 07:48:55;;;;;;;8.27;4.80;;;;;;;;;;5049198;28;20046;-79
2023/05/28 07:51:21;;;;;;;12.70;5.22;;;;;;;;;;5054334;28;20041;-77
2023/05/28 07:53:48;;;;;;;10.68;5.13;;;;;;;;;;5070117;28;20066;-78
2023/05/28 07:56:14;;;;;;;9.00;4.45;;;;;;;;;;5055089;28;20036;-79
2023/05/28 07:58:43;;;;;;;11.32;4.45;;;;;;;;;;5048062;28;20404;-79
2023/05/28 08:01:10;;;;;;;12.52;5.10;;;;;;;;;;5061566;28;20489;-78
2023/05/28 08:03:36;;;;;;;13.93;5.15;;;;;;;;;;5062650;28;20048;-78
2023/05/28 08:06:03;;;;;;;12.95;4.80;;;;;;;;;;5059859;28;20045;-79
2023/05/28 08:08:29;;;;;;;13.65;5.00;;;;;;;;;;5052370;28;20499;-78
2023/05/28 08:10:55;;;;;;;10.48;4.97;;;;;;;;;;5062377;28;20037;-78
2023/05/28 08:13:21;;;;;;;9.25;4.47;;;;;;;;;;5046937;28;20119;-79
2023/05/28 08:15:47;;;;;;;9.02;4.82;;;;;;;;;;5060556;28;20044;-79
2023/05/28 08:18:14;;;;;;;10.27;4.85;;;;;;;;;;5046362;28;20043;-79
2023/05/28 08:20:41;;;;;;;10.30;5.50;;;;;;;;;;5073274;28;20046;-77
2023/05/28 08:23:07;;;;;;;9.27;4.63;;;;;;;;;;5068248;28;21292;-78
2023/05/28 08:25:33;;;;;;;13.15;5.78;;;;;;;;;;5067913;28;20066;-79
2023/05/28 08:27:59;;;;;;;8.50;4.53;;;;;;;;;;5070362;28;20494;-78
2023/05/28 08:30:26;;;;;;;11.63;5.15;;;;;;;;;;5062333;28;20489;-79
2023/05/28 08:32:52;;;;;;;10.65;5.85;;;;;;;;;;5048792;28;20036;-79
2023/05/28 08:35:18;;;;;;;8.85;5.40;;;;;;;;;;5051007;28;20100;-78
2023/05/28 08:37:44;;;;;;;11.18;5.60;;;;;;;;;;5079655;28;20723;-78
2023/05/28 08:40:11;;;;;;;9.43;5.60;;;;;;;;;;5070411;28;20059;-80
2023/05/28 08:42:37;;;;;;;10.13;5.87;;;;;;;;;;5067747;28;20516;-80
2023/05/28 08:45:04;;;;;;;10.23;5.95;;;;;;;;;;5062105;28;20158;-79
2023/05/28 08:47:33;;;;;;;10.63;5.75;;;;;;;;;;5089977;28;20075;-79
2023/05/28 08:50:02;;;;;;;11.93;6.03;;;;;;;;;;5051332;28;20046;-79
2023/05/28 08:52:30;;;;;;;10.25;6.05;;;;;;;;;;5056736;28;20152;-80
2023/05/28 08:54:56;;;;;;;11.30;5.70;;;;;;;;;;5057718;28;20048;-78
2023/05/28 08:57:22;;;;;;;9.98;5.82;;;;;;;;;;5049303;28;20636;-80
2023/05/28 08:59:48;;;;;;;10.10;6.22;;;;;;;;;;5069953;28;20102;-79
2023/05/28 09:02:15;;;;;;;10.40;6.35;;;;;;;;;;5064182;28;20563;-78
2023/05/28 09:04:45;;;;;;;8.98;5.55;;;;;;;;;;5067327;28;20533;-78
2023/05/28 09:07:12;;;;;;;10.50;5.75;;;;;;;;;;5059850;28;20450;-80
2023/05/28 09:09:38;;;;;;;12.00;6.40;;;;;;;;;;5047696;28;20108;-79
2023/05/28 09:12:14;;;;;;;11.70;6.55;;;;;;;;;;5059907;28;20087;-79
2023/05/28 09:14:45;;;;;;;9.70;6.13;;;;;;;;;;5069843;28;20044;-78
2023/05/28 09:17:17;;;;;;;13.13;7.25;;;;;;;;;;5059765;28;20044;-78
2023/05/28 09:19:53;;;;;;;9.60;5.30;;;;;;;;;;5059873;28;20523;-79
2023/05/28 09:22:28;;;;;;;11.88;5.80;;;;;;;;;;5045305;28;20105;-79
2023/05/28 09:25:00;;;;;;;9.40;6.20;;;;;;;;;;5060022;28;20040;-79
2023/05/28 09:27:27;;;;;;;9.98;6.30;;;;;;;;;;5056866;28;20060;-78
2023/05/28 09:29:54;;;;;;;8.27;5.55;;;;;;;;;;5075354;28;20048;-80
2023/05/28 09:32:20;;;;;;;11.38;5.97;;;;;;;;;;5037809;28;20044;-79
2023/05/28 09:34:46;;;;;;;10.25;6.07;;;;;;;;;;5055685;28;20047;-79
2023/05/28 09:37:16;;;;;;;11.15;5.72;;;;;;;;;;5056164;28;20941;-80
2023/05/28 09:39:42;;;;;;;8.65;5.68;;;;;;;;;;5054475;28;20048;-78
2023/05/28 09:42:12;;;;;;;9.90;6.22;;;;;;;;;;5058143;28;20126;-78
2023/05/28 09:44:40;;;;;;;9.43;6.25;;;;;;;;;;5057496;28;20053;-79
2023/05/28 09:47:14;;;;;;;8.93;6.00;;;;;;;;;;5048030;28;20044;-80
2023/05/28 09:49:40;;;;;;;14.70;6.38;;;;;;;;;;5058730;28;20044;-78
2023/05/28 09:52:07;;;;;;;8.43;5.45;;;;;;;;;;5054363;28;20048;-78
2023/05/28 09:54:35;;;;;;;9.45;6.03;;;;;;;;;;5034148;28;20072;-78
2023/05/28 09:57:05;;;;;;;11.63;5.68;;;;;;;;;;5056399;28;20776;-78
2023/05/28 09:59:32;;;;;;;7.88;5.38;;;;;;;;;;5057004;28;20094;-77
2023/05/28 10:02:13;;;;;;;8.98;5.22;;;;;;;;;;5053135;28;20044;-79
2023/05/28 10:04:39;;;;;;;10.88;6.05;;;;;;;;;;5051619;28;20056;-79
2023/05/28 10:07:05;;;;;;;12.00;6.10;;;;;;;;;;5067898;28;20654;-79
2023/05/28 10:09:32;;;;;;;10.10;6.00;;;;;;;;;;5033399;28;20160;-78
2023/05/28 10:12:09;;;;;;;11.18;6.10;;;;;;;;;;5054462;28;20064;-79
2023/05/28 10:14:36;;;;;;;14.35;6.80;;;;;;;;;;5055238;28;20052;-78
2023/05/28 10:17:02;;;;;;;10.23;5.70;;;;;;;;;;5056130;28;20032;-78
2023/05/28 10:19:29;;;;;;;11.63;6.10;;;;;;;;;;5058713;28;20041;-79
2023/05/28 10:21:56;;;;;;;10.32;5.95;;;;;;;;;;5054698;28;20114;-78
2023/05/28 10:24:22;;;;;;;9.27;6.22;;;;;;;;;;5057047;28;20051;-78
2023/05/28 10:26:49;;;;;;;10.68;5.75;;;;;;;;;;5038555;28;20500;-78
2023/05/28 10:29:15;;;;;;;10.27;6.55;;;;;;;;;;5037024;28;20049;-77
2023/05/28 10:31:41;;;;;;;13.77;6.53;;;;;;;;;;5037495;28;20048;-78
2023/05/28 10:34:15;;;;;;;9.07;6.10;;;;;;;;;;5062305;28;20032;-78
2023/05/28 10:36:50;;;;;;;8.38;5.88;;;;;;;;;;5038031;28;20041;-78
2023/05/28 10:39:16;;;;;;;9.68;5.72;;;;;;;;;;5056506;28;20095;-79
2023/05/28 10:41:42;;;;;;;11.02;5.70;;;;;;;;;;5069143;28;20516;-78
2023/05/28 10:44:08;;;;;;;9.48;5.50;;;;;;;;;;5056348;28;20044;-79
2023/05/28 10:46:41;;;;;;;8.32;5.50;;;;;;;;;;5042288;28;20093;-79
2023/05/28 10:49:20;;;;;;;8.45;5.60;;;;;;;;;;5056066;28;20056;-79
2023/05/28 10:52:00;;;;;;;8.10;5.45;;;;;;;;;;5058871;28;20054;-77
2023/05/28 10:54:29;;;;;;;9.13;5.72;;;;;;;;;;5039436;28;20443;-78
2023/05/28 10:57:14;;;;;;;9.90;6.22;;;;;;;;;;5041806;28;20421;-77
2023/05/28 10:59:51;;;;;;;9.77;6.22;;;;;;;;;;5053789;28;20047;-79
2023/05/28 11:02:19;;;;;;;9.13;6.60;;;;;;;;;;5058726;28;20559;-79
2023/05/28 11:04:45;;;;;;;9.52;6.20;;;;;;;;;;5040488;28;20045;-80
2023/05/28 11:07:12;;;;;;;11.52;6.55;;;;;;;;;;5050626;28;20091;-78
2023/05/28 11:09:39;;;;;;;10.32;6.53;;;;;;;;;;5054045;28;20049;-78
2023/05/28 11:12:06;;;;;;;8.18;6.32;;;;;;;;;;5041004;28;20048;-79
2023/05/28 11:14:35;;;;;;;12.07;6.90;;;;;;;;;;5045651;28;20048;-78
2023/05/28 11:17:02;;;;;;;9.10;6.15;;;;;;;;;;5059993;28;20822;-79
2023/05/28 11:19:28;;;;;;;9.25;5.65;;;;;;;;;;5054516;28;20598;-79
2023/05/28 11:21:57;;;;;;;6.68;5.22;;;;;;;;;;5045454;28;20044;-79
2023/05/28 11:24:26;;;;;;;9.60;5.65;;;;;;;;;;5040517;28;20080;-79
2023/05/28 11:26:54;;;;;;;8.65;5.20;;;;;;;;;;5038241;28;20045;-81
2023/05/28 11:29:21;;;;;;;9.25;5.35;;;;;;;;;;5065211;28;20044;-81
2023/05/28 11:31:47;;;;;;;13.95;4.93;;;;;;;;;;5052032;28;20053;-78
2023/05/28 11:34:13;;;;;;;6.60;4.20;;;;;;;;;;5057027;28;20048;-78
2023/05/28 11:36:43;;;;;;;7.18;4.05;;;;;;;;;;5058644;28;20102;-78
2023/05/28 11:39:09;;;;;;;9.30;4.20;;;;;;;;;;5036754;28;20086;-79
2023/05/28 11:41:35;;;;;;;9.25;4.30;;;;;;;;;;5036277;28;20535;-79
2023/05/28 11:44:01;;;;;;;9.00;4.20;;;;;;;;;;5057073;28;20074;-78
2023/05/28 11:46:27;;;;;;;7.07;3.85;;;;;;;;;;5041476;28;20218;-79
2023/05/28 11:48:54;;;;;;;7.15;4.22;;;;;;;;;;5056237;28;20052;-79
2023/05/28 11:51:20;;;;;;;6.72;3.58;;;;;;;;;;5057064;28;20812;-79
2023/05/28 11:53:46;;;;;;;8.77;3.72;;;;;;;;;;5055138;28;20091;-79
2023/05/28 11:56:13;;;;;;;7.75;3.53;;;;;;;;;;5043026;28;20043;-80
2023/05/28 11:58:44;;;;;;;8.45;3.40;;;;;;;;;;5059909;28;20044;-78
2023/05/28 12:01:14;;;;;;;7.97;3.22;;;;;;;;;;5077338;28;20119;-80
2023/05/28 12:03:40;;;;;;;6.38;3.10;;;;;;;;;;5074100;28;20103;-79
2023/05/28 12:06:06;;;;;;;10.13;3.50;;;;;;;;;;5058515;28;20061;-80
2023/05/28 12:08:32;;;;;;;8.23;3.25;;;;;;;;;;5060737;28;20044;-79
2023/05/28 12:11:05;;;;;;;7.60;3.00;;;;;;;;;;5078451;28;20119;-79
2023/05/28 12:13:34;;;;;;;9.25;3.13;;;;;;;;;;5079080;28;20032;-80
2023/05/28 12:16:07;;;;;;;10.30;3.22;;;;;;;;;;5060171;28;20088;-80
2023/05/28 12:18:33;;;;;;;8.65;3.17;;;;;;;;;;5037452;28;20044;-79
2023/05/28 12:20:59;;;;;;;6.57;3.10;;;;;;;;;;5053955;28;20500;-79
2023/05/28 12:23:25;;;;;;;8.98;3.20;;;;;;;;;;5051771;28;20049;-78
2023/05/28 12:25:52;;;;;;;7.32;3.30;;;;;;;;;;5043054;28;20048;-80
2023/05/28 12:28:22;;;;;;;7.88;3.13;;;;;;;;;;5077568;28;20083;-79
2023/05/28 12:30:54;;;;;;;8.07;3.15;;;;;;;;;;5061221;28;20062;-79
2023/05/28 12:33:21;;;;;;;8.85;3.22;;;;;;;;;;5062027;28;20114;-80
2023/05/28 12:35:47;;;;;;;6.07;3.20;;;;;;;;;;5040508;28;20067;-80
2023/05/28 12:38:14;;;;;;;10.20;3.50;;;;;;;;;;5060872;28;20040;-78
2023/05/28 12:40:40;;;;;;;10.80;3.42;;;;;;;;;;5073907;28;20716;-79
2023/05/28 12:43:07;;;;;;;11.20;4.22;;;;;;;;;;5047220;28;20595;-78
2023/05/28 12:45:34;;;;;;;11.45;3.58;;;;;;;;;;5041463;28;20045;-80
2023/05/28 12:48:00;;;;;;;9.68;3.50;;;;;;;;;;5061335;28;20048;-80
2023/05/28 12:50:26;;;;;;;11.23;3.63;;;;;;;;;;5073398;28;20127;-79
2023/05/28 12:52:52;;;;;;;13.23;3.67;;;;;;;;;;5050006;28;20139;-79
2023/05/28 12:55:18;;;;;;;12.55;3.90;;;;;;;;;;5060774;28;20036;-80
2023/05/28 12:57:44;;;;;;;9.25;3.58;;;;;;;;;;5039167;28;20511;-79
2023/05/28 13:00:11;;;;;;;9.27;3.47;;;;;;;;;;5035066;28;20037;-79
2023/05/28 13:02:40;;;;;;;8.77;3.40;;;;;;;;;;5058240;28;20045;-79
2023/05/28 13:05:06;;;;;;;8.77;3.70;;;;;;;;;;5059851;28;20052;-79
2023/05/28 13:07:33;;;;;;;12.32;3.60;;;;;;;;;;5044968;28;20555;-79
2023/05/28 13:09:59;;;;;;;9.70;3.28;;;;;;;;;;5076011;28;20036;-80
2023/05/28 13:12:25;;;;;;;9.95;3.50;;;;;;;;;;5063085;28;20396;-80
2023/05/28 13:14:51;;;;;;;12.00;3.25;;;;;;;;;;5042751;28;20524;-80
2023/05/28 13:17:19;;;;;;;12.80;3.70;;;;;;;;;;5045208;28;20063;-79
2023/05/28 13:19:45;;;;;;;;;;;;;;;;;;5062626;28;20064;-79
2023/05/28 13:22:12;;;;;;;9.50;3.50;;;;;;;;;;5042255;28;20403;-79
2023/05/28 13:24:38;;;;;;;10.48;3.30;;;;;;;;;;5059021;28;20139;-79
2023/05/28 13:27:04;;;;;;;13.75;4.13;;;;;;;;;;5030818;28;20082;-78
2023/05/28 13:29:31;;;;;;;11.63;3.50;;;;;;;;;;5038043;28;20048;-78
2023/05/28 13:31:57;;;;;;;11.75;3.83;;;;;;;;;;5031063;28;20504;-79
2023/05/28 13:34:23;;;;;;;10.98;3.22;;;;;;;;;;5052937;28;20040;-79
2023/05/28 13:36:50;;;;;;;13.00;3.90;;;;;;;;;;5037493;28;20089;-79
2023/05/28 13:39:16;;;;;;;14.27;4.25;;;;;;;;;;5027760;28;20075;-79
2023/05/28 13:41:42;;;;;;;12.32;3.70;;;;;;;;;;5054191;28;20561;-79
2023/05/28 13:44:09;;;;;;;12.95;3.50;;;;;;;;;;5039900;28;20048;-79
2023/05/28 13:46:35;;;;;;;12.10;3.83;;;;;;;;;;5056222;28;20048;-78
2023/05/28 13:49:01;;;;;;;14.50;3.88;;;;;;;;;;5032807;28;20135;-79
2023/05/28 13:51:27;;;;;;;14.80;3.63;;;;;;;;;;5043035;28;20140;-79
2023/05/28 13:53:53;;;;;;;13.35;3.95;;;;;;;;;;5037317;28;20044;-80
2023/05/28 13:56:19;;;;;;;11.45;3.78;;;;;;;;;;5051783;28;20530;-79
2023/05/28 13:58:45;;;;;;;14.23;3.75;;;;;;;;;;5057156;28;20590;-79
2023/05/28 14:01:11;;;;;;;12.50;3.63;;;;;;;;;;5056944;28;20045;-78
2023/05/28 14:03:37;;;;;;;13.15;3.40;;;;;;;;;;5058855;28;20500;-77
2023/05/28 14:06:03;;;;;;;10.63;3.10;;;;;;;;;;5061780;28;20106;-78
2023/05/28 14:08:29;;;;;;;12.27;3.38;;;;;;;;;;5042569;28;20495;-77
2023/05/28 14:10:55;;;;;;;15.57;3.65;;;;;;;;;;5045710;28;20617;-79
2023/05/28 14:13:21;;;;;;;10.23;3.38;;;;;;;;;;5061948;28;20449;-78
2023/05/28 14:15:47;;;;;;;11.40;3.33;;;;;;;;;;5060202;28;20389;-78
2023/05/28 14:18:13;;;;;;;8.65;3.13;;;;;;;;;;5062687;28;20123;-78
2023/05/28 14:20:39;;;;;;;10.75;3.33;;;;;;;;;;5053897;28;20044;-78
2023/05/28 14:23:05;;;;;;;9.18;2.95;;;;;;;;;;5044266;28;20458;-78
2023/05/28 14:25:31;;;;;;;10.63;3.50;;;;;;;;;;5056690;28;20049;-78
2023/05/28 14:27:57;;;;;;;9.15;3.25;;;;;;;;;;5058401;28;20040;-79
2023/05/28 14:30:27;;;;;;;9.27;2.97;;;;;;;;;;5061693;28;20059;-78
2023/05/28 14:32:52;;;;;;;11.38;3.03;;;;;;;;;;5054785;28;20105;-78